createdAt,value
2023-06-28T00:00:15.079Z,30.80
2023-06-28T00:03:12.431Z,30.80
2023-06-28T00:05:41.896Z,30.70
2023-06-28T00:08:10.885Z,30.70
2023-06-28T00:10:41.297Z,30.70
2023-06-28T00:13:10.481Z,30.70
2023-06-28T00:15:39.321Z,30.60
2023-06-28T00:18:09.454Z,30.60
2023-06-28T00:20:38.363Z,30.60
2023-06-28T00:23:07.851Z,30.60
2023-06-28T00:25:36.672Z,30.50
2023-06-28T00:28:07.243Z,30.50
2023-06-28T00:30:38.331Z,30.50
2023-06-28T00:33:07.369Z,30.50
2023-06-28T00:35:36.198Z,30.50
2023-06-28T00:38:05.320Z,30.40
2023-06-28T00:40:34.042Z,30.40
2023-06-28T00:43:03.121Z,30.40
2023-06-28T00:45:33.299Z,30.30
2023-06-28T00:48:02.898Z,30.30
2023-06-28T00:50:32.234Z,30.30
2023-06-28T00:53:01.799Z,30.20
2023-06-28T00:55:31.202Z,30.20
2023-06-28T00:58:00.538Z,30.20
2023-06-28T01:00:29.358Z,30.20
2023-06-28T01:03:01.839Z,30.20
2023-06-28T01:05:32.107Z,30.20
2023-06-28T01:08:01.756Z,30.20
2023-06-28T01:10:31.061Z,30.20
2023-06-28T01:13:02.200Z,30.20
2023-06-28T01:15:31.351Z,30.10
2023-06-28T01:18:02.270Z,30.10
2023-06-28T01:20:31.733Z,30.10
2023-06-28T01:23:03.549Z,30.10
2023-06-28T01:25:32.341Z,30.10
2023-06-28T01:28:02.083Z,30.10
2023-06-28T01:30:31.352Z,30.00
2023-06-28T01:33:00.690Z,30.00
2023-06-28T01:35:33.015Z,30.00
2023-06-28T01:38:03.875Z,30.00
2023-06-28T01:40:37.520Z,30.00
2023-06-28T01:43:07.666Z,30.00
2023-06-28T01:45:37.238Z,30.00
2023-06-28T01:48:08.207Z,30.00
2023-06-28T01:50:37.621Z,30.00
2023-06-28T01:53:09.315Z,29.90
2023-06-28T01:55:38.415Z,29.90
2023-06-28T01:58:07.794Z,29.90
2023-06-28T02:00:36.575Z,29.90
2023-06-28T02:03:05.784Z,29.90
2023-06-28T02:05:34.838Z,29.80
2023-06-28T02:08:08.583Z,29.80
2023-06-28T02:10:37.704Z,29.80
2023-06-28T02:13:09.127Z,29.80
2023-06-28T02:15:38.066Z,29.80
2023-06-28T02:18:08.668Z,29.80
2023-06-28T02:20:37.477Z,29.80
2023-06-28T02:23:07.867Z,29.80
2023-06-28T02:25:38.892Z,29.80
2023-06-28T02:28:08.307Z,29.70
2023-06-28T02:30:39.455Z,29.70
2023-06-28T02:33:08.789Z,29.70
2023-06-28T02:35:38.004Z,29.70
2023-06-28T02:38:08.387Z,29.70
2023-06-28T02:40:38.150Z,29.70
2023-06-28T02:43:10.836Z,29.70
2023-06-28T02:45:39.674Z,29.70
2023-06-28T02:48:08.962Z,29.60
2023-06-28T02:50:37.742Z,29.70
2023-06-28T02:53:15.617Z,29.70
2023-06-28T02:55:44.648Z,29.70
2023-06-28T02:58:15.813Z,29.70
2023-06-28T03:00:48.192Z,29.70
2023-06-28T03:03:18.551Z,29.70
2023-06-28T03:05:48.909Z,29.70
2023-06-28T03:08:19.543Z,29.60
2023-06-28T03:10:48.540Z,29.70
2023-06-28T03:13:17.580Z,29.70
2023-06-28T03:15:46.571Z,29.70
2023-06-28T03:18:19.481Z,29.70
2023-06-28T03:20:48.269Z,29.70
2023-06-28T03:23:19.206Z,29.70
2023-06-28T03:25:48.119Z,29.70
2023-06-28T03:28:18.986Z,29.70
2023-06-28T03:30:47.909Z,29.70
2023-06-28T03:33:16.974Z,29.70
2023-06-28T03:35:45.998Z,29.70
2023-06-28T03:38:17.986Z,29.80
2023-06-28T03:40:48.188Z,29.70
2023-06-28T03:43:18.238Z,29.80
2023-06-28T03:45:47.626Z,29.80
2023-06-28T03:48:16.710Z,29.70
2023-06-28T03:50:45.583Z,29.80
2023-06-28T03:53:14.602Z,29.70
2023-06-28T03:55:43.612Z,29.70
2023-06-28T03:58:14.130Z,29.80
2023-06-28T04:00:44.281Z,29.80
2023-06-28T04:03:13.439Z,29.90
2023-06-28T04:05:42.198Z,29.90
2023-06-28T04:08:12.459Z,29.90
2023-06-28T04:10:41.537Z,29.90
2023-06-28T04:13:11.157Z,29.90
2023-06-28T04:15:41.329Z,29.90
2023-06-28T04:18:10.516Z,29.90
2023-06-28T04:20:39.467Z,29.90
2023-06-28T04:23:08.605Z,29.90
2023-06-28T04:25:38.620Z,30.00
2023-06-28T04:28:08.019Z,29.90
2023-06-28T04:30:36.832Z,30.00
2023-06-28T04:33:07.317Z,30.10
2023-06-28T04:35:36.531Z,30.10
2023-06-28T04:38:06.144Z,30.10
2023-06-28T04:40:35.574Z,30.10
2023-06-28T04:43:04.712Z,30.20
2023-06-28T04:45:37.892Z,30.10
2023-06-28T04:48:09.933Z,30.20
2023-06-28T04:50:40.775Z,30.30
2023-06-28T04:53:10.278Z,30.30
2023-06-28T04:55:39.145Z,30.30
2023-06-28T04:58:09.071Z,30.30
2023-06-28T05:00:37.947Z,30.40
2023-06-28T05:03:08.833Z,30.50
2023-06-28T05:05:37.766Z,30.50
2023-06-28T05:08:09.121Z,30.50
2023-06-28T05:10:39.356Z,30.60
2023-06-28T05:13:08.482Z,30.60
2023-06-28T05:15:37.319Z,30.70
2023-06-28T05:18:07.951Z,30.70
2023-06-28T05:20:36.842Z,30.80
2023-06-28T05:23:14.345Z,30.80
2023-06-28T05:25:44.587Z,30.80
2023-06-28T05:28:15.797Z,30.90
2023-06-28T05:30:46.262Z,30.90
2023-06-28T05:33:17.024Z,31.00
2023-06-28T05:35:45.939Z,31.00
2023-06-28T05:38:14.938Z,31.10
2023-06-28T05:40:44.348Z,31.10
2023-06-28T05:43:13.745Z,31.20
2023-06-28T05:45:43.403Z,31.20
2023-06-28T05:48:12.838Z,31.20
2023-06-28T05:50:46.155Z,31.30
2023-06-28T05:53:15.445Z,31.30
2023-06-28T05:55:44.176Z,31.40
2023-06-28T05:58:13.350Z,31.50
2023-06-28T06:00:42.193Z,31.60
2023-06-28T06:03:11.625Z,31.80
2023-06-28T06:05:42.308Z,31.80
2023-06-28T06:08:11.347Z,31.90
2023-06-28T06:10:40.290Z,32.00
2023-06-28T06:13:10.348Z,32.10
2023-06-28T06:15:39.285Z,32.30
2023-06-28T06:18:08.420Z,32.40
2023-06-28T06:20:37.522Z,32.50
2023-06-28T06:23:08.082Z,32.60
2023-06-28T06:25:37.461Z,32.70
2023-06-28T06:28:06.759Z,32.80
2023-06-28T06:30:35.597Z,32.90
2023-06-28T06:33:04.819Z,32.90
2023-06-28T06:35:33.690Z,33.00
2023-06-28T06:38:02.900Z,33.10
2023-06-28T06:40:34.916Z,33.20
2023-06-28T06:43:04.092Z,33.20
2023-06-28T06:45:32.967Z,33.30
2023-06-28T06:48:02.152Z,33.40
2023-06-28T06:50:31.070Z,33.50
2023-06-28T06:53:00.072Z,33.50
2023-06-28T06:55:29.012Z,33.50
2023-06-28T06:57:59.502Z,33.50
2023-06-28T07:00:28.279Z,33.60
2023-06-28T07:02:57.418Z,33.70
2023-06-28T07:05:26.504Z,33.70
2023-06-28T07:07:56.060Z,33.80
2023-06-28T07:10:24.926Z,33.80
2023-06-28T07:12:54.125Z,33.90
2023-06-28T07:15:24.378Z,33.90
2023-06-28T07:17:55.458Z,33.90
2023-06-28T07:20:24.714Z,34.00
2023-06-28T07:22:53.960Z,33.90
2023-06-28T07:25:22.733Z,33.90
2023-06-28T07:27:51.771Z,33.90
2023-06-28T07:30:20.813Z,33.80
2023-06-28T07:32:51.342Z,33.90
2023-06-28T07:35:20.246Z,34.00
2023-06-28T07:37:49.379Z,34.00
2023-06-28T07:40:18.249Z,34.00
2023-06-28T07:42:47.404Z,34.00
2023-06-28T07:45:16.450Z,34.10
2023-06-28T07:47:45.599Z,34.10
2023-06-28T07:50:15.806Z,34.10
2023-06-28T07:52:44.866Z,34.10
2023-06-28T07:55:13.758Z,34.10
2023-06-28T07:57:42.932Z,34.00
2023-06-28T08:00:13.340Z,34.00
2023-06-28T08:02:42.556Z,34.00
2023-06-28T08:05:11.518Z,34.00
2023-06-28T08:07:42.045Z,34.10
2023-06-28T08:10:11.985Z,34.10
2023-06-28T08:12:41.272Z,34.10
2023-06-28T08:15:11.647Z,34.20
2023-06-28T08:17:41.012Z,34.20
2023-06-28T08:20:10.653Z,34.20
2023-06-28T08:22:41.146Z,34.20
2023-06-28T08:25:10.928Z,34.20
2023-06-28T08:27:40.024Z,34.20
2023-06-28T08:30:10.665Z,34.20
2023-06-28T08:32:39.926Z,34.10
2023-06-28T08:35:10.505Z,34.10
2023-06-28T08:37:41.075Z,34.00
2023-06-28T08:40:13.040Z,34.10
2023-06-28T08:42:43.485Z,34.10
2023-06-28T08:45:14.574Z,34.20
2023-06-28T08:47:46.338Z,34.10
2023-06-28T08:50:17.212Z,34.20
2023-06-28T08:52:50.081Z,34.20
2023-06-28T08:55:20.458Z,34.30
2023-06-28T08:57:50.371Z,34.30
2023-06-28T09:00:20.984Z,34.40
2023-06-28T09:02:51.033Z,34.40
2023-06-28T09:05:21.707Z,34.40
2023-06-28T09:07:57.119Z,34.50
2023-06-28T09:10:26.792Z,34.50
2023-06-28T09:12:56.221Z,34.50
2023-06-28T09:15:25.403Z,34.60
2023-06-28T09:17:54.894Z,34.60
2023-06-28T09:20:24.404Z,34.60
2023-06-28T09:22:59.798Z,34.60
2023-06-28T09:25:32.251Z,34.70
2023-06-28T09:28:02.097Z,34.70
2023-06-28T09:30:54.932Z,34.70
2023-06-28T09:33:25.087Z,34.70
2023-06-28T09:35:56.980Z,34.70
2023-06-28T09:38:28.544Z,34.70
2023-06-28T09:40:59.447Z,34.70
2023-06-28T09:43:34.716Z,34.80
2023-06-28T09:46:14.416Z,34.80
2023-06-28T09:48:52.522Z,34.80
2023-06-28T09:51:21.584Z,34.90
2023-06-28T09:53:54.216Z,34.90
2023-06-28T09:56:24.240Z,34.80
2023-06-28T09:58:54.114Z,34.80
2023-06-28T10:01:25.006Z,34.80
2023-06-28T10:03:55.116Z,34.80
2023-06-28T10:06:24.526Z,34.90
2023-06-28T10:08:55.918Z,35.00
2023-06-28T10:11:26.519Z,35.10
2023-06-28T10:13:55.695Z,35.20
2023-06-28T10:16:29.927Z,35.30
2023-06-28T10:18:59.405Z,35.30
2023-06-28T10:21:28.912Z,35.30
2023-06-28T10:24:01.995Z,35.20
2023-06-28T10:26:33.174Z,35.20
2023-06-28T10:29:04.760Z,35.20
2023-06-28T10:31:34.263Z,35.20
2023-06-28T10:34:04.265Z,35.30
2023-06-28T10:36:33.241Z,35.40
2023-06-28T10:39:04.357Z,35.30
2023-06-28T10:41:33.564Z,35.40
2023-06-28T10:44:06.640Z,35.40
2023-06-28T10:46:38.061Z,35.30
2023-06-28T10:49:07.639Z,35.30
2023-06-28T10:51:39.126Z,35.20
2023-06-28T10:54:14.062Z,35.10
2023-06-28T10:56:49.843Z,35.10
2023-06-28T10:59:19.994Z,35.10
2023-06-28T11:01:57.111Z,35.10
2023-06-28T11:04:27.902Z,35.10
2023-06-28T11:07:17.251Z,35.00
2023-06-28T11:10:18.389Z,34.90
2023-06-28T11:12:49.757Z,34.90
2023-06-28T11:15:30.655Z,35.10
2023-06-28T11:18:13.915Z,35.20
2023-06-28T11:20:52.721Z,35.40
2023-06-28T11:23:32.198Z,35.40
2023-06-28T11:26:07.017Z,35.40
2023-06-28T11:28:38.147Z,35.40
2023-06-28T11:31:19.490Z,35.40
2023-06-28T11:33:51.920Z,35.30
2023-06-28T11:36:24.854Z,35.30
2023-06-28T11:38:54.369Z,35.20
2023-06-28T11:41:24.896Z,35.10
2023-06-28T11:43:53.995Z,35.00
2023-06-28T11:46:24.637Z,35.00
2023-06-28T11:48:53.964Z,34.90
2023-06-28T11:51:25.169Z,34.90
2023-06-28T11:53:56.653Z,34.90
2023-06-28T11:56:37.750Z,34.90
2023-06-28T11:59:17.974Z,35.00
2023-06-28T12:01:48.689Z,35.10
2023-06-28T12:04:22.916Z,35.10
2023-06-28T12:06:55.716Z,35.20
2023-06-28T12:09:28.335Z,35.20
2023-06-28T12:12:00.734Z,35.10
2023-06-28T12:14:33.232Z,35.10
2023-06-28T12:17:06.362Z,35.00
2023-06-28T12:19:37.146Z,34.90
2023-06-28T12:22:08.123Z,34.90
2023-06-28T12:24:38.434Z,34.80
2023-06-28T12:27:10.235Z,34.70
2023-06-28T12:29:40.071Z,34.60
2023-06-28T12:32:15.533Z,34.60
2023-06-28T12:34:51.802Z,34.50
2023-06-28T12:37:21.032Z,34.50
2023-06-28T12:39:50.195Z,34.40
2023-06-28T12:42:26.630Z,34.40
2023-06-28T12:44:57.280Z,34.30
2023-06-28T12:47:28.815Z,34.30
2023-06-28T12:49:59.651Z,34.40
2023-06-28T12:52:31.217Z,34.40
2023-06-28T12:55:00.075Z,34.40
2023-06-28T12:57:32.083Z,34.40
2023-06-28T13:00:01.130Z,34.40
2023-06-28T13:02:30.300Z,34.40
2023-06-28T13:04:59.354Z,34.40
2023-06-28T13:07:28.677Z,34.40
2023-06-28T13:09:57.417Z,34.40
2023-06-28T13:12:26.552Z,34.40
2023-06-28T13:14:57.077Z,34.50
2023-06-28T13:17:26.266Z,34.60
2023-06-28T13:19:55.041Z,34.70
2023-06-28T13:22:24.094Z,34.80
2023-06-28T13:24:52.907Z,34.80
2023-06-28T13:27:21.933Z,34.90
2023-06-28T13:29:50.930Z,34.90
2023-06-28T13:32:21.496Z,34.90
2023-06-28T13:34:50.343Z,34.90
2023-06-28T13:37:28.401Z,34.90
2023-06-28T13:39:59.052Z,34.90
2023-06-28T13:42:29.015Z,34.90
2023-06-28T13:44:57.870Z,34.90
2023-06-28T13:47:28.354Z,34.90
2023-06-28T13:49:59.824Z,34.80
2023-06-28T13:52:29.051Z,34.70
2023-06-28T13:54:57.926Z,34.60
2023-06-28T13:57:27.024Z,34.50
2023-06-28T13:59:57.264Z,34.50
2023-06-28T14:02:29.650Z,34.50
2023-06-28T14:04:58.748Z,34.40
2023-06-28T14:07:27.952Z,34.40
2023-06-28T14:09:57.226Z,34.30
2023-06-28T14:12:26.443Z,34.30
2023-06-28T14:14:55.155Z,34.30
2023-06-28T14:17:24.224Z,34.20
2023-06-28T14:19:54.600Z,34.20
2023-06-28T14:22:24.724Z,34.20
2023-06-28T14:24:53.733Z,34.30
2023-06-28T14:27:22.897Z,34.20
2023-06-28T14:29:51.861Z,34.20
2023-06-28T14:32:21.873Z,34.20
2023-06-28T14:34:50.777Z,34.10
2023-06-28T14:37:21.631Z,34.10
2023-06-28T14:39:50.676Z,34.10
2023-06-28T14:42:19.881Z,34.00
2023-06-28T14:44:48.671Z,34.00
2023-06-28T14:47:18.123Z,34.00
2023-06-28T14:49:46.931Z,34.00
2023-06-28T14:52:16.077Z,34.00
2023-06-28T14:54:46.255Z,34.00
2023-06-28T14:57:15.443Z,33.90
2023-06-28T14:59:45.861Z,33.80
2023-06-28T15:02:15.113Z,33.80
2023-06-28T15:04:43.927Z,33.80
2023-06-28T15:07:13.072Z,33.70
2023-06-28T15:09:42.032Z,33.70
2023-06-28T15:12:13.334Z,33.70
2023-06-28T15:14:44.349Z,33.70
2023-06-28T15:17:13.564Z,33.70
2023-06-28T15:19:42.401Z,33.70
2023-06-28T15:22:11.603Z,33.60
2023-06-28T15:24:40.416Z,33.60
2023-06-28T15:27:10.978Z,33.50
2023-06-28T15:29:39.925Z,33.60
2023-06-28T15:32:10.673Z,33.50
2023-06-28T15:34:39.627Z,33.50
2023-06-28T15:37:08.845Z,33.50
2023-06-28T15:39:38.851Z,33.50
2023-06-28T15:42:08.483Z,33.40
2023-06-28T15:44:38.682Z,33.40
2023-06-28T15:47:09.032Z,33.40
2023-06-28T15:49:37.828Z,33.40
2023-06-28T15:52:07.832Z,33.40
2023-06-28T15:54:39.049Z,33.40
2023-06-28T15:57:08.946Z,33.20
2023-06-28T15:59:39.160Z,33.20
2023-06-28T16:02:10.321Z,33.20
2023-06-28T16:04:39.306Z,33.20
2023-06-28T16:07:09.649Z,33.20
2023-06-28T16:09:38.546Z,33.30
2023-06-28T16:12:09.230Z,33.40
2023-06-28T16:14:40.001Z,33.30
2023-06-28T16:17:09.124Z,33.50
2023-06-28T16:19:38.227Z,33.60
2023-06-28T16:22:07.403Z,33.60
2023-06-28T16:24:36.249Z,33.70
2023-06-28T16:27:06.182Z,33.70
2023-06-28T16:29:35.210Z,33.70
2023-06-28T16:32:06.360Z,33.70
2023-06-28T16:34:35.432Z,33.70
2023-06-28T16:37:04.941Z,33.70
2023-06-28T16:39:33.777Z,33.70
2023-06-28T16:42:03.093Z,33.70
2023-06-28T16:44:31.892Z,33.70
2023-06-28T16:47:02.929Z,33.70
2023-06-28T16:49:33.307Z,33.70
2023-06-28T16:52:02.476Z,33.70
2023-06-28T16:54:31.217Z,33.70
2023-06-28T16:57:00.334Z,33.70
2023-06-28T16:59:29.125Z,33.70
2023-06-28T17:01:58.298Z,33.70
2023-06-28T17:04:27.214Z,33.70
2023-06-28T17:06:57.892Z,33.70
2023-06-28T17:09:27.741Z,33.70
2023-06-28T17:11:57.223Z,33.70
2023-06-28T17:14:26.024Z,33.70
2023-06-28T17:16:55.245Z,33.70
2023-06-28T17:19:24.041Z,33.60
2023-06-28T17:21:53.162Z,33.50
2023-06-28T17:24:23.319Z,33.50
2023-06-28T17:26:57.004Z,33.40
2023-06-28T17:29:26.664Z,33.30
2023-06-28T17:31:55.984Z,33.40
2023-06-28T17:34:24.895Z,33.30
2023-06-28T17:36:54.013Z,33.30
2023-06-28T17:39:24.230Z,33.20
2023-06-28T17:41:53.363Z,33.20
2023-06-28T17:44:22.219Z,33.10
2023-06-28T17:46:51.390Z,33.10
2023-06-28T17:49:20.374Z,33.10
2023-06-28T17:51:49.624Z,33.00
2023-06-28T17:54:19.122Z,33.00
2023-06-28T17:56:49.710Z,32.90
2023-06-28T17:59:18.490Z,32.90
2023-06-28T18:01:47.540Z,32.90
2023-06-28T18:04:16.757Z,32.90
2023-06-28T18:06:46.076Z,32.90
2023-06-28T18:09:15.058Z,32.90
2023-06-28T18:11:45.038Z,32.90
2023-06-28T18:14:15.306Z,32.90
2023-06-28T18:16:44.471Z,32.90
2023-06-28T18:19:13.276Z,32.80
2023-06-28T18:21:42.312Z,32.80
2023-06-28T18:24:11.068Z,32.80
2023-06-28T18:26:40.095Z,32.80
2023-06-28T18:29:09.239Z,32.80
2023-06-28T18:31:39.690Z,32.80
2023-06-28T18:34:08.609Z,32.80
2023-06-28T18:36:37.761Z,32.80
2023-06-28T18:39:07.559Z,32.70
2023-06-28T18:41:43.341Z,32.70
2023-06-28T18:44:12.288Z,32.70
2023-06-28T18:46:42.746Z,32.70
2023-06-28T18:49:11.606Z,32.70
2023-06-28T18:51:40.616Z,32.70
2023-06-28T18:54:09.366Z,32.70
2023-06-28T18:56:38.555Z,32.70
2023-06-28T18:59:09.695Z,32.60
2023-06-28T19:01:40.147Z,32.60
2023-06-28T19:04:11.483Z,32.60
2023-06-28T19:06:41.909Z,32.60
2023-06-28T19:09:10.919Z,32.60
2023-06-28T19:11:40.042Z,32.60
2023-06-28T19:14:09.033Z,32.50
2023-06-28T19:21:11.718Z,32.50
2023-06-28T19:23:41.328Z,32.50
2023-06-28T19:26:10.487Z,32.40
2023-06-28T19:28:39.437Z,32.40
2023-06-28T19:31:08.610Z,32.40
2023-06-28T19:33:37.421Z,32.40
2023-06-28T19:36:07.245Z,32.40
2023-06-28T19:38:39.161Z,32.30
2023-06-28T19:41:08.340Z,32.40
2023-06-28T19:43:37.307Z,32.30
2023-06-28T19:46:06.428Z,32.30
2023-06-28T19:48:35.273Z,32.20
2023-06-28T19:51:04.613Z,32.20
2023-06-28T19:53:33.537Z,32.20
2023-06-28T19:56:04.090Z,32.20
2023-06-28T19:58:35.836Z,32.20
2023-06-28T20:01:06.839Z,32.20
2023-06-28T20:03:38.054Z,32.20
2023-06-28T20:06:07.360Z,32.10
2023-06-28T20:08:36.302Z,32.10
2023-06-28T20:11:06.842Z,32.10
2023-06-28T20:13:35.616Z,32.10
2023-06-28T20:16:05.294Z,32.10
2023-06-28T20:18:34.167Z,32.10
2023-06-28T20:21:04.673Z,32.10
2023-06-28T20:23:33.840Z,32.10
2023-06-28T20:26:03.050Z,32.10
2023-06-28T20:28:34.621Z,32.10
2023-06-28T20:31:04.037Z,32.20
2023-06-28T20:33:32.841Z,32.20
2023-06-28T20:36:01.986Z,32.10
2023-06-28T20:38:31.081Z,32.20
2023-06-28T20:41:00.374Z,32.10
2023-06-28T20:43:30.139Z,32.10
2023-06-28T20:46:04.006Z,32.10
2023-06-28T20:48:33.880Z,32.10
2023-06-28T20:51:03.205Z,32.10
2023-06-28T20:53:32.000Z,32.00
2023-06-28T20:56:01.113Z,32.00
2023-06-28T20:58:29.953Z,32.10
2023-06-28T21:01:03.427Z,32.10
2023-06-28T21:03:32.368Z,32.10
2023-06-28T21:06:01.485Z,32.10
2023-06-28T21:08:30.331Z,32.00
2023-06-28T21:10:59.413Z,32.00
2023-06-28T21:13:28.217Z,32.00
2023-06-28T21:15:57.384Z,32.00
2023-06-28T21:18:27.625Z,32.00
2023-06-28T21:20:56.722Z,32.00
2023-06-28T21:23:25.524Z,32.00
2023-06-28T21:25:54.849Z,32.00
2023-06-28T21:28:23.730Z,32.00
2023-06-28T21:30:53.222Z,32.00
2023-06-28T21:33:22.143Z,32.00
2023-06-28T21:35:52.805Z,32.00
2023-06-28T21:38:21.711Z,32.00
2023-06-28T21:40:50.818Z,32.00
2023-06-28T21:43:20.847Z,32.00
2023-06-28T21:45:50.118Z,31.90
2023-06-28T21:48:18.859Z,32.00
2023-06-28T21:50:48.836Z,32.00
2023-06-28T21:53:19.178Z,31.90
2023-06-28T21:55:48.386Z,31.90
2023-06-28T21:58:17.377Z,31.90
2023-06-28T22:02:24.774Z,31.90
2023-06-28T22:04:54.430Z,31.90
2023-06-28T22:07:23.542Z,31.90
2023-06-28T22:09:55.053Z,31.90
2023-06-28T22:12:26.782Z,32.00
2023-06-28T22:14:56.688Z,32.00
2023-06-28T22:17:29.666Z,32.00
2023-06-28T22:19:58.998Z,32.00
2023-06-28T22:22:28.381Z,32.00
2023-06-28T22:24:59.066Z,32.00
2023-06-28T22:27:28.697Z,32.00
2023-06-28T22:29:58.391Z,31.90
2023-06-28T22:32:27.615Z,31.90
2023-06-28T22:34:57.131Z,31.90
2023-06-28T22:37:26.233Z,31.90
2023-06-28T22:39:55.441Z,31.90
2023-06-28T22:42:26.155Z,31.90
2023-06-28T22:44:55.501Z,31.90
2023-06-28T22:47:24.676Z,31.80
2023-06-28T22:49:54.218Z,31.80
2023-06-28T22:52:24.216Z,31.80
2023-06-28T22:54:54.171Z,31.80
2023-06-28T22:57:23.281Z,31.80
2023-06-28T22:59:53.882Z,31.80
2023-06-28T23:02:23.185Z,31.80
2023-06-28T23:04:52.535Z,31.80
2023-06-28T23:07:23.800Z,31.80
2023-06-28T23:09:53.191Z,31.80
2023-06-28T23:16:58.485Z,31.80
2023-06-28T23:19:28.117Z,31.70
2023-06-28T23:21:57.788Z,31.70
2023-06-28T23:24:26.792Z,31.70
2023-06-28T23:26:56.595Z,31.70
2023-06-28T23:29:26.724Z,31.70
2023-06-28T23:31:58.244Z,31.70
2023-06-28T23:34:27.495Z,31.60
2023-06-28T23:36:58.404Z,31.60
2023-06-28T23:39:27.530Z,31.60
2023-06-28T23:41:56.982Z,31.60
2023-06-28T23:44:26.665Z,31.60
2023-06-28T23:46:57.470Z,31.50
2023-06-28T23:49:26.613Z,31.60
2023-06-28T23:51:55.827Z,31.50
2023-06-28T23:54:24.946Z,31.50
2023-06-28T23:56:54.375Z,31.50
2023-06-28T23:59:23.442Z,31.50
